Time;durP1;ratioP1;P1;durP2;ratioP2;P2;SDS_P1;SDS_P2;PMS_P1;PMS_P2;Temp;Humidity;BMP_temperature;BMP_pressure;BME280_temperature;BME280_humidity;BME280_pressure;Samples;Min_cycle;Max_cycle;Signal;HPM_P1;HPM_P2
2022/04/26 03:40:08;;;;;;;3.00;2.10;;;20.80;49.80;;;;;;220405;1268;22550;-68
2022/04/26 03:45:12;;;;;;;2.90;1.90;;;20.70;49.80;;;;;;220373;1267;25343;-70
2022/04/26 03:50:16;;;;;;;2.60;1.70;;;20.70;49.80;;;;;;220412;1267;23038;-69
2022/04/26 03:55:21;;;;;;;2.60;1.90;;;20.70;50.20;;;;;;220508;1267;22542;-67
2022/04/26 04:00:26;;;;;;;2.80;1.80;;;20.60;50.00;;;;;;220316;1267;22544;-68
2022/04/26 04:05:30;;;;;;;4.30;2.10;;;20.60;50.50;;;;;;220542;1267;22641;-72
2022/04/26 04:10:34;;;;;;;2.60;1.80;;;20.60;50.00;;;;;;220591;1266;25727;-69
2022/04/26 04:15:38;;;;;;;2.50;1.80;;;20.60;50.00;;;;;;220367;1267;22691;-66
2022/04/26 04:20:42;;;;;;;3.40;1.90;;;20.60;50.00;;;;;;220131;1267;547917;-69
2022/04/26 04:25:45;;;;;;;3.00;1.90;;;20.60;50.40;;;;;;220662;1267;24439;-68
2022/04/26 04:30:49;;;;;;;2.80;1.70;;;20.50;50.00;;;;;;220321;1267;24387;-63
2022/04/26 04:35:54;;;;;;;2.90;1.80;;;20.50;50.10;;;;;;220509;1267;24371;-67
2022/04/26 04:40:58;;;;;;;2.80;1.80;;;20.50;50.20;;;;;;220450;1266;24416;-69
2022/04/26 04:46:02;;;;;;;2.70;1.80;;;20.50;50.10;;;;;;220379;1268;22580;-69
2022/04/26 04:51:07;;;;;;;3.10;1.90;;;20.40;50.10;;;;;;220503;1267;24418;-72
2022/04/26 04:56:13;;;;;;;3.10;2.10;;;20.40;50.00;;;;;;220440;1267;23023;-70
2022/04/26 05:01:17;;;;;;;3.00;1.80;;;20.40;50.10;;;;;;220705;1267;24264;-68
2022/04/26 05:06:21;;;;;;;2.50;1.80;;;20.40;50.10;;;;;;220483;1268;22525;-72
2022/04/26 05:11:25;;;;;;;2.90;2.10;;;20.40;50.20;;;;;;220927;1267;22535;-71
2022/04/26 05:16:32;;;;;;;3.10;2.00;;;20.40;50.30;;;;;;220755;1268;22551;-74
2022/04/26 05:21:36;;;;;;;3.00;2.00;;;20.30;50.20;;;;;;220897;1267;24347;-68
2022/04/26 05:26:40;;;;;;;3.00;2.00;;;20.30;50.20;;;;;;220556;1267;24361;-68
2022/04/26 05:31:45;;;;;;;2.80;1.90;;;20.30;50.90;;;;;;220774;1267;24429;-72
2022/04/26 05:36:49;;;;;;;3.20;2.20;;;20.30;50.30;;;;;;221026;1267;22535;-70
2022/04/26 05:41:52;;;;;;;3.00;1.90;;;20.30;50.90;;;;;;220952;1267;22641;-68
2022/04/26 05:46:56;;;;;;;3.00;1.90;;;20.40;50.20;;;;;;220627;1267;22679;-67
2022/04/26 05:52:01;;;;;;;3.40;1.90;;;20.70;49.40;;;;;;221062;1267;24290;-72
2022/04/26 05:57:05;;;;;;;3.70;2.10;;;21.10;48.80;;;;;;220740;1267;22525;-69
2022/04/26 06:02:09;;;;;;;2.90;1.80;;;21.30;48.40;;;;;;220889;1267;24323;-69
2022/04/26 06:07:13;;;;;;;3.40;1.70;;;21.40;48.30;;;;;;220746;1267;22689;-70
2022/04/26 06:12:17;;;;;;;3.00;1.70;;;21.50;47.80;;;;;;220862;1267;25294;-68
2022/04/26 06:17:20;;;;;;;3.10;1.80;;;21.60;47.60;;;;;;220851;1267;23139;-72
2022/04/26 06:22:24;;;;;;;2.70;1.70;;;21.80;47.40;;;;;;221115;1267;24501;-68
2022/04/26 06:27:33;;;;;;;2.40;1.50;;;21.90;47.20;;;;;;221077;1267;24399;-69
2022/04/26 06:32:37;;;;;;;2.70;1.70;;;22.00;47.00;;;;;;221213;1267;22566;-69
2022/04/26 06:37:41;;;;;;;3.00;1.90;;;22.10;46.80;;;;;;221122;1267;25327;-68
2022/04/26 06:42:45;;;;;;;4.40;1.80;;;22.20;46.60;;;;;;221107;1268;23155;-70
2022/04/26 06:47:49;;;;;;;2.60;1.80;;;22.20;46.60;;;;;;220864;1267;22579;-72
2022/04/26 06:52:53;;;;;;;2.80;1.80;;;22.20;46.90;;;;;;220841;1267;26608;-68
2022/04/26 06:57:57;;;;;;;3.20;2.00;;;22.10;46.50;;;;;;220866;1268;22617;-69
2022/04/26 07:03:01;;;;;;;2.20;1.70;;;22.00;47.20;;;;;;220835;1267;25296;-70
2022/04/26 07:08:05;;;;;;;3.00;1.80;;;21.90;47.70;;;;;;220288;1267;24251;-70
2022/04/26 07:13:09;;;;;;;2.80;2.00;;;21.80;47.70;;;;;;220702;1267;22708;-70
2022/04/26 07:18:13;;;;;;;2.60;1.50;;;21.60;48.00;;;;;;220442;1267;24270;-70
2022/04/26 07:23:19;;;;;;;3.70;1.40;;;21.60;48.20;;;;;;220575;1267;24248;-69
2022/04/26 07:28:23;;;;;;;3.00;1.90;;;21.50;48.40;;;;;;220787;1267;24215;-72
2022/04/26 07:38:53;;;;;;;4.70;1.80;;;21.40;48.60;;;;;;220580;1267;22731;-71
2022/04/26 07:44:07;;;;;;;2.80;1.80;;;21.40;48.80;;;;;;220837;1267;24240;-69
2022/04/26 07:49:23;;;;;;;;;;;21.30;48.80;;;;;;220655;1268;22685;-70
2022/04/26 07:54:29;;;;;;;2.50;1.90;;;21.30;49.00;;;;;;220690;1267;25334;-69
2022/04/26 07:59:33;;;;;;;3.20;2.00;;;21.20;49.40;;;;;;220539;1268;25608;-70
2022/04/26 08:04:38;;;;;;;3.70;1.70;;;21.20;49.20;;;;;;220563;1267;24212;-67
2022/04/26 08:09:46;;;;;;;2.80;1.60;;;21.20;49.20;;;;;;221060;1267;24208;-70
2022/04/26 08:14:52;;;;;;;2.80;1.90;;;21.20;49.30;;;;;;220838;1268;24296;-71
2022/04/26 08:19:56;;;;;;;2.90;1.80;;;21.20;49.90;;;;;;220755;1268;22491;-69
2022/04/26 08:30:24;;;;;;;2.30;1.60;;;21.20;49.50;;;;;;220241;1267;24411;-72
2022/04/26 08:35:28;;;;;;;5.70;2.00;;;21.20;50.00;;;;;;220582;1267;24208;-70
2022/04/26 08:40:52;;;;;;;2.60;1.40;;;21.10;49.40;;;;;;220664;1267;23944;-70
2022/04/26 08:45:58;;;;;;;3.10;1.80;;;21.10;49.40;;;;;;220694;1267;26465;-69
2022/04/26 08:51:07;;;;;;;3.30;1.70;;;21.20;49.60;;;;;;220947;1268;22646;-71
2022/04/26 08:56:11;;;;;;;3.20;1.80;;;21.20;49.60;;;;;;221040;1267;22563;-69
2022/04/26 09:01:22;;;;;;;2.50;1.70;;;21.20;49.60;;;;;;220760;1267;24277;-68
2022/04/26 09:06:40;;;;;;;4.00;1.80;;;21.10;49.50;;;;;;220889;1267;23843;-68
2022/04/26 09:11:49;;;;;;;2.80;1.70;;;21.20;49.90;;;;;;220836;1267;24399;-71
2022/04/26 09:17:12;;;;;;;2.60;1.60;;;21.20;49.60;;;;;;221010;1267;22613;-72
2022/04/26 09:22:27;;;;;;;3.20;1.90;;;21.20;49.50;;;;;;220768;1267;22607;-70
2022/04/26 09:27:37;;;;;;;3.80;1.70;;;21.20;49.60;;;;;;220787;1267;22554;-74
2022/04/26 09:32:47;;;;;;;3.40;1.80;;;21.20;49.60;;;;;;220597;1267;22547;-73
2022/04/26 09:37:57;;;;;;;3.40;1.70;;;21.20;49.70;;;;;;220388;1267;24225;-74
2022/04/26 09:43:19;;;;;;;3.00;1.80;;;21.20;50.00;;;;;;220505;1266;24290;-73
2022/04/26 09:48:37;;;;;;;3.00;1.70;;;21.20;49.50;;;;;;220462;1267;22540;-73
2022/04/26 09:53:42;;;;;;;3.20;1.60;;;21.30;49.70;;;;;;220484;1268;25405;-70
2022/04/26 09:58:49;;;;;;;3.80;1.80;;;21.30;50.00;;;;;;220245;1268;26006;-70
2022/04/26 10:04:02;;;;;;;2.70;1.80;;;21.30;49.60;;;;;;220310;1268;23961;-73
2022/04/26 10:09:08;;;;;;;2.50;1.50;;;21.30;49.90;;;;;;221088;1267;22534;-72
2022/04/26 10:14:15;;;;;;;4.20;2.10;;;21.30;49.50;;;;;;221039;1268;24345;-72
2022/04/26 10:19:43;;;;;;;2.40;1.60;;;21.30;49.40;;;;;;221098;1270;22613;-73
2022/04/26 10:25:25;;;;;;;3.30;1.60;;;21.30;49.50;;;;;;220969;1270;23043;-70
2022/04/26 10:30:48;;;;;;;2.50;1.70;;;21.40;49.50;;;;;;219774;1267;22866;-72
2022/04/26 10:35:53;;;;;;;3.40;1.60;;;21.40;49.50;;;;;;220888;1267;25385;-70
2022/04/26 10:41:06;;;;;;;3.00;1.90;;;21.40;49.20;;;;;;220823;1267;26468;-69
2022/04/26 10:46:13;;;;;;;2.60;1.80;;;21.40;50.20;;;;;;220582;1267;22525;-74
2022/04/26 10:51:34;;;;;;;3.40;1.80;;;21.40;49.50;;;;;;220341;1267;22528;-70
2022/04/26 10:56:38;;;;;;;2.50;1.70;;;21.50;49.50;;;;;;220899;1267;22615;-70
2022/04/26 11:01:43;;;;;;;2.30;1.50;;;21.50;49.50;;;;;;220795;1270;24233;-72
2022/04/26 11:06:48;;;;;;;2.40;1.70;;;21.50;49.80;;;;;;220820;1270;22665;-69
2022/04/26 11:11:54;;;;;;;2.80;1.60;;;21.50;49.50;;;;;;220934;1268;22548;-72
2022/04/26 11:17:00;;;;;;;4.10;1.80;;;21.50;49.50;;;;;;220731;1267;23925;-70
2022/04/26 11:22:14;;;;;;;3.50;2.00;;;21.60;49.50;;;;;;220547;1267;24276;-70
2022/04/26 11:32:48;;;;;;;2.60;1.60;;;21.60;49.80;;;;;;220387;1267;22701;-70
2022/04/26 11:37:54;;;;;;;4.50;1.80;;;21.60;49.50;;;;;;220838;1267;25382;-72
2022/04/26 11:43:06;;;;;;;2.30;1.60;;;21.60;49.50;;;;;;220844;1267;22551;-69
2022/04/26 11:48:13;;;;;;;2.70;1.70;;;21.60;49.50;;;;;;220567;1268;22531;-73
2022/04/26 11:53:19;;;;;;;3.40;1.90;;;21.70;49.50;;;;;;220491;1267;25289;-72
2022/04/26 11:58:32;;;;;;;2.80;1.80;;;21.70;49.40;;;;;;220281;1267;25236;-71
2022/04/26 12:03:56;;;;;;;3.40;1.70;;;21.70;49.50;;;;;;220285;1271;22624;-67
2022/04/26 12:09:05;;;;;;;2.60;1.60;;;21.70;49.60;;;;;;220927;1270;22665;-71
2022/04/26 12:14:14;;;;;;;3.00;1.90;;;21.70;49.80;;;;;;220951;1268;24279;-73
2022/04/26 12:19:35;;;;;;;2.70;1.70;;;21.70;49.50;;;;;;220902;1268;24056;-73
2022/04/26 12:24:47;;;;;;;2.80;1.70;;;21.70;49.80;;;;;;220935;1267;22544;-69
2022/04/26 12:29:54;;;;;;;;;;;21.70;49.50;;;;;;220691;1267;22532;-72
2022/04/26 12:35:00;;;;;;;3.10;1.70;;;21.70;49.50;;;;;;220335;1268;25356;-70
2022/04/26 12:40:10;;;;;;;3.30;1.60;;;21.60;49.90;;;;;;220797;1268;24061;-72
2022/04/26 12:45:21;;;;;;;3.60;1.80;;;21.60;49.80;;;;;;220794;1269;25453;-71
2022/04/26 12:50:32;;;;;;;3.40;2.20;;;21.60;49.50;;;;;;220781;1270;23161;-72
2022/04/26 12:55:39;;;;;;;2.70;1.80;;;21.60;49.50;;;;;;220923;1269;22685;-71
2022/04/26 13:00:47;;;;;;;2.80;1.60;;;21.60;49.60;;;;;;220778;1268;22588;-70
2022/04/26 13:06:04;;;;;;;2.80;1.60;;;21.60;49.60;;;;;;220626;1268;22560;-72
2022/04/26 13:11:29;;;;;;;2.20;1.50;;;21.60;49.60;;;;;;220688;1270;22684;-69
2022/04/26 13:16:36;;;;;;;3.00;1.50;;;21.50;49.40;;;;;;220643;1269;23169;-70
2022/04/26 13:21:40;;;;;;;2.70;1.60;;;21.60;49.40;;;;;;220709;1268;26750;-70
2022/04/26 13:26:46;;;;;;;2.40;1.60;;;21.50;50.10;;;;;;220714;1268;25468;-72
2022/04/26 13:31:51;;;;;;;3.10;1.60;;;21.50;49.70;;;;;;220832;1268;22536;-70
2022/04/26 13:36:54;;;;;;;2.40;1.50;;;21.50;49.30;;;;;;220711;1268;22551;-66
2022/04/26 13:41:58;;;;;;;3.10;1.70;;;21.50;49.30;;;;;;220922;1270;25242;-70
2022/04/26 13:47:04;;;;;;;2.10;1.40;;;21.50;49.30;;;;;;220914;1268;24398;-71
2022/04/26 13:52:13;;;;;;;2.90;1.70;;;21.50;49.30;;;;;;221034;1268;22547;-70
2022/04/26 13:57:18;;;;;;;3.30;1.70;;;21.50;49.30;;;;;;220502;1268;25475;-70
2022/04/26 14:02:22;;;;;;;2.30;1.50;;;21.50;49.80;;;;;;220688;1268;22710;-72
2022/04/26 14:07:27;;;;;;;2.90;1.70;;;21.50;49.40;;;;;;220684;1268;22573;-70
2022/04/26 14:12:35;;;;;;;2.10;1.40;;;21.40;49.40;;;;;;220469;1268;24463;-67
2022/04/26 14:23:25;;;;;;;2.70;1.50;;;21.40;49.40;;;;;;220159;1270;25366;-70
2022/04/26 14:28:35;;;;;;;3.20;1.50;;;21.40;49.40;;;;;;220544;1268;22548;-72
2022/04/26 14:33:40;;;;;;;2.40;1.50;;;21.40;49.30;;;;;;220951;1268;22697;-70
2022/04/26 14:38:44;;;;;;;2.20;1.60;;;21.40;49.20;;;;;;220858;1268;24377;-74
2022/04/26 14:43:49;;;;;;;2.20;1.50;;;21.40;49.30;;;;;;220907;1268;24538;-68
2022/04/26 14:48:53;;;;;;;2.30;1.60;;;21.40;49.30;;;;;;220697;1268;25608;-68
2022/04/26 14:54:01;;;;;;;2.50;1.70;;;21.40;49.30;;;;;;220733;1268;23060;-69
2022/04/26 14:59:07;;;;;;;2.90;1.70;;;21.40;49.30;;;;;;220694;1268;24402;-72
2022/04/26 15:04:23;;;;;;;2.80;1.90;;;21.40;49.20;;;;;;220676;1268;22552;-69
2022/04/26 15:09:43;;;;;;;2.40;1.40;;;21.40;49.30;;;;;;220569;1268;22526;-72
2022/04/26 15:20:13;;;;;;;3.30;2.00;;;21.30;49.30;;;;;;220687;1268;22532;-71
2022/04/26 15:25:17;;;;;;;2.50;1.70;;;21.30;49.30;;;;;;220639;1268;24366;-70
2022/04/26 15:30:22;;;;;;;2.70;1.80;;;21.30;49.30;;;;;;220401;1268;22814;-70
2022/04/26 15:35:29;;;;;;;3.00;1.80;;;21.30;49.30;;;;;;220585;1267;22576;-73
2022/04/26 15:40:34;;;;;;;2.50;1.60;;;21.30;49.30;;;;;;220483;1267;22538;-69
2022/04/26 15:45:38;;;;;;;2.30;1.40;;;21.30;49.30;;;;;;220525;1267;24214;-71
2022/04/26 15:50:42;;;;;;;2.40;1.60;;;21.30;49.30;;;;;;220636;1268;22576;-71
2022/04/26 15:55:48;;;;;;;2.60;1.60;;;21.30;49.40;;;;;;220450;1268;24192;-71
2022/04/26 16:00:58;;;;;;;3.40;2.10;;;21.30;49.20;;;;;;220549;1268;23917;-71
2022/04/26 16:06:07;;;;;;;3.00;1.60;;;21.20;49.30;;;;;;220478;1268;22524;-71
2022/04/26 16:22:04;;;;;;;2.30;1.60;;;21.20;49.40;;;;;;220179;1267;538386;-70
2022/04/26 16:27:08;;;;;;;3.30;1.90;;;21.20;49.40;;;;;;220532;1268;25296;-69
2022/04/26 16:32:13;;;;;;;2.40;1.50;;;21.20;49.40;;;;;;220527;1268;22816;-72
2022/04/26 16:37:17;;;;;;;2.30;1.70;;;21.20;49.40;;;;;;220376;1268;25462;-69
2022/04/26 16:42:22;;;;;;;3.00;1.60;;;21.20;49.30;;;;;;220564;1266;25237;-70
2022/04/26 16:47:29;;;;;;;2.90;1.80;;;21.10;49.40;;;;;;220318;1268;22531;-71
2022/04/26 16:52:36;;;;;;;2.90;1.90;;;21.10;49.30;;;;;;220544;1267;25477;-71
2022/04/26 16:57:42;;;;;;;3.40;1.70;;;21.10;49.30;;;;;;220444;1267;22544;-72
2022/04/26 17:02:47;;;;;;;3.20;2.00;;;21.10;49.20;;;;;;220658;1267;22551;-69
2022/04/26 17:07:57;;;;;;;2.40;1.60;;;21.10;49.50;;;;;;220540;1267;22715;-69
2022/04/26 17:13:01;;;;;;;2.50;1.40;;;21.10;49.40;;;;;;220717;1267;22808;-70
2022/04/26 17:18:06;;;;;;;2.30;1.50;;;21.10;49.30;;;;;;220695;1267;25506;-73
2022/04/26 17:23:11;;;;;;;3.80;1.60;;;21.10;49.30;;;;;;220457;1267;22550;-69
2022/04/26 17:28:23;;;;;;;2.60;1.80;;;21.10;49.30;;;;;;220729;1268;24374;-71
2022/04/26 17:33:28;;;;;;;2.50;1.60;;;21.10;49.30;;;;;;221106;1267;22528;-69
2022/04/26 17:38:35;;;;;;;2.90;1.90;;;21.10;49.60;;;;;;220813;1268;24308;-69
2022/04/26 17:43:42;;;;;;;2.30;1.50;;;21.10;49.30;;;;;;220921;1267;25290;-70
2022/04/26 17:49:03;;;;;;;2.70;1.80;;;21.10;49.40;;;;;;220830;1267;24300;-69
2022/04/26 17:59:56;;;;;;;2.80;1.70;;;21.00;49.50;;;;;;220720;1268;22570;-69
2022/04/26 18:04:59;;;;;;;3.30;2.00;;;21.00;49.40;;;;;;220644;1267;22802;-68
2022/04/26 18:10:06;;;;;;;2.80;1.80;;;21.00;49.60;;;;;;220873;1268;24218;-68
2022/04/26 18:15:16;;;;;;;2.50;1.60;;;21.00;49.60;;;;;;220720;1267;22544;-68
2022/04/26 18:20:25;;;;;;;2.40;1.50;;;21.00;49.60;;;;;;220724;1267;23051;-68
2022/04/26 18:30:56;;;;;;;2.80;1.80;;;20.90;50.00;;;;;;220864;1268;22550;-70
2022/04/26 18:36:08;;;;;;;3.10;1.80;;;20.90;49.80;;;;;;220881;1268;22577;-70
2022/04/26 18:41:21;;;;;;;3.80;1.90;;;20.90;49.90;;;;;;220836;1267;22645;-69
2022/04/26 18:46:29;;;;;;;2.90;1.90;;;20.90;49.90;;;;;;220898;1267;24264;-68
2022/04/26 18:51:36;;;;;;;3.00;2.00;;;20.90;49.90;;;;;;220604;1267;22591;-70
2022/04/26 18:56:51;;;;;;;3.20;2.20;;;20.80;49.90;;;;;;220789;1268;24291;-70
2022/04/26 19:01:58;;;;;;;2.30;1.60;;;20.80;49.90;;;;;;220704;1267;24055;-69
2022/04/26 19:07:19;;;;;;;3.10;1.90;;;20.80;50.20;;;;;;220529;1268;22529;-70
2022/04/26 19:12:42;;;;;;;2.70;1.90;;;20.80;50.60;;;;;;220771;1267;22568;-69
2022/04/26 19:17:54;;;;;;;3.00;2.20;;;20.70;49.90;;;;;;220978;1267;25242;-69
2022/04/26 19:23:08;;;;;;;2.70;1.80;;;20.70;49.90;;;;;;220492;1268;22802;-70
2022/04/26 19:28:31;;;;;;;3.20;2.00;;;20.70;50.00;;;;;;220760;1267;22691;-70
2022/04/26 19:33:47;;;;;;;3.60;2.40;;;20.70;49.90;;;;;;220792;1267;23183;-68
2022/04/26 19:39:19;;;;;;;4.10;1.90;;;20.70;49.90;;;;;;220880;1267;24275;-71
2022/04/26 19:44:34;;;;;;;3.50;2.00;;;20.70;49.90;;;;;;220519;1267;25235;-69
2022/04/26 19:51:25;;;;;;;4.00;2.40;;;20.60;49.90;;;;;;220469;1267;22550;-65
2022/04/26 19:55:27;;;;;;;3.10;2.30;;;20.60;49.90;;;;;;220576;1267;25237;-69
2022/04/26 20:00:51;;;;;;;3.10;2.10;;;20.60;50.00;;;;;;220542;1267;22648;-71
2022/04/26 20:06:12;;;;;;;2.90;2.10;;;20.60;49.90;;;;;;220778;1268;25504;-67
2022/04/26 20:11:24;;;;;;;4.30;2.10;;;20.60;49.50;;;;;;220839;1267;24305;-70
2022/04/26 20:16:42;;;;;;;3.20;2.20;;;20.60;50.00;;;;;;220459;1267;24194;-69
2022/04/26 20:21:53;;;;;;;3.60;2.30;;;20.60;50.00;;;;;;220463;1268;22844;-68
2022/04/26 20:33:22;;;;;;;3.80;2.40;;;20.50;50.00;;;;;;220808;1268;22607;-68
2022/04/26 20:38:40;;;;;;;4.10;2.80;;;20.50;50.00;;;;;;220929;1266;22570;-67
2022/04/26 20:43:51;;;;;;;3.90;2.30;;;20.50;50.10;;;;;;220913;1267;25518;-68
2022/04/26 20:49:01;;;;;;;3.90;2.50;;;20.50;50.00;;;;;;220758;1267;25242;-70
2022/04/26 20:54:15;;;;;;;5.20;3.30;;;20.50;50.10;;;;;;220782;1267;25450;-70
2022/04/26 20:59:31;;;;;;;4.40;3.30;;;20.40;50.40;;;;;;220710;1267;24224;-68
2022/04/26 21:04:39;;;;;;;4.20;3.00;;;20.40;50.10;;;;;;220490;1267;22619;-69
2022/04/26 21:09:56;;;;;;;5.50;2.90;;;20.40;50.10;;;;;;220677;1267;22660;-70
2022/04/26 21:15:01;;;;;;;5.60;3.10;;;20.40;50.40;;;;;;220846;1267;25309;-69
2022/04/26 21:20:29;;;;;;;4.90;3.40;;;20.40;50.10;;;;;;220674;1267;24247;-67
2022/04/26 21:25:43;;;;;;;5.90;3.60;;;20.60;49.60;;;;;;220787;1267;26667;-68
2022/04/26 21:31:03;;;;;;;4.30;2.80;;;21.00;48.80;;;;;;220696;1268;22534;-69
2022/04/26 21:36:16;;;;;;;4.50;3.20;;;21.30;48.10;;;;;;220974;1267;24268;-70
2022/04/26 21:41:32;;;;;;;5.70;3.60;;;21.60;47.60;;;;;;220619;1267;25492;-70
2022/04/26 21:46:40;;;;;;;5.50;3.60;;;21.80;47.20;;;;;;220857;1267;25294;-69
2022/04/26 21:51:52;;;;;;;5.80;3.40;;;21.90;47.00;;;;;;220722;1267;25357;-69
2022/04/26 21:57:27;;;;;;;5.10;3.10;;;22.00;46.80;;;;;;220312;1267;22617;-68
2022/04/26 22:02:50;;;;;;;6.80;4.00;;;22.10;46.50;;;;;;220569;1267;22685;-67
2022/04/26 22:07:56;;;;;;;5.30;3.70;;;22.20;46.40;;;;;;220454;1267;24676;-70
2022/04/26 22:13:10;;;;;;;5.80;3.70;;;22.30;46.20;;;;;;220251;1267;22709;-67
2022/04/26 22:18:20;;;;;;;5.50;3.80;;;22.30;46.20;;;;;;220651;1267;24290;-70
2022/04/26 22:23:24;;;;;;;6.30;3.80;;;22.30;46.20;;;;;;220725;1266;25391;-67
2022/04/26 22:28:27;;;;;;;6.40;4.00;;;22.20;46.70;;;;;;220339;1267;24211;-69
2022/04/26 22:33:33;;;;;;;6.10;4.20;;;22.10;46.60;;;;;;220700;1267;22558;-69
2022/04/26 22:38:47;;;;;;;6.50;3.40;;;22.00;46.80;;;;;;220903;1267;24319;-69
2022/04/26 22:43:53;;;;;;;6.10;3.90;;;21.90;46.90;;;;;;220586;1267;22544;-69
2022/04/26 22:49:21;;;;;;;5.10;3.30;;;21.70;47.10;;;;;;220690;1268;24325;-69
2022/04/26 22:54:34;;;;;;;5.60;3.90;;;21.60;47.50;;;;;;220543;1267;22687;-69
2022/04/26 22:59:40;;;;;;;5.70;3.90;;;21.50;47.70;;;;;;221031;1268;24314;-69
2022/04/26 23:04:44;;;;;;;6.70;4.40;;;21.50;47.70;;;;;;220381;1267;24447;-69
2022/04/26 23:09:52;;;;;;;6.20;4.10;;;21.40;47.80;;;;;;220353;1266;22782;-69
2022/04/26 23:15:03;;;;;;;7.20;4.50;;;21.40;47.90;;;;;;220944;1267;22528;-69
2022/04/26 23:20:16;;;;;;;6.30;4.30;;;21.30;48.00;;;;;;221025;1268;24246;-69
2022/04/26 23:25:28;;;;;;;7.30;4.70;;;21.30;48.10;;;;;;220815;1268;22528;-73
2022/04/26 23:30:45;;;;;;;8.40;5.10;;;21.30;48.20;;;;;;220693;1267;22531;-69
2022/04/26 23:35:50;;;;;;;6.80;4.70;;;21.20;48.20;;;;;;220704;1267;24234;-69
2022/04/26 23:40:54;;;;;;;6.80;4.50;;;21.20;48.30;;;;;;220278;1267;23908;-69
2022/04/26 23:45:57;;;;;;;6.40;4.60;;;21.10;48.70;;;;;;220766;1267;24371;-68
2022/04/26 23:56:25;;;;;;;7.30;4.80;;;21.00;48.50;;;;;;220476;1268;22695;-72
